sensor_id;sensor_type;location;lat;lon;timestamp;pressure;altitude;pressure_sealevel;temperature;humidity
39051;BME280;24805;55.852;37.644;2024-01-30T00:00:44;100416.28;;;1.26;65.51
39051;BME280;24805;55.852;37.644;2024-01-30T00:05:47;100422.72;;;1.20;65.64
39051;BME280;24805;55.852;37.644;2024-01-30T00:10:49;100420.09;;;1.20;65.76
39051;BME280;24805;55.852;37.644;2024-01-30T00:15:51;100420.56;;;1.27;65.70
39051;BME280;24805;55.852;37.644;2024-01-30T00:20:53;100421.50;;;1.26;65.71
39051;BME280;24805;55.852;37.644;2024-01-30T00:25:56;100412.91;;;1.24;65.63
39051;BME280;24805;55.852;37.644;2024-01-30T00:30:58;100400.41;;;1.29;65.62
39051;BME280;24805;55.852;37.644;2024-01-30T00:36:01;100409.63;;;1.34;65.67
39051;BME280;24805;55.852;37.644;2024-01-30T00:41:03;100399.84;;;1.38;65.26
39051;BME280;24805;55.852;37.644;2024-01-30T00:46:06;100401.81;;;1.20;66.14
39051;BME280;24805;55.852;37.644;2024-01-30T00:51:08;100394.94;;;1.19;65.67
39051;BME280;24805;55.852;37.644;2024-01-30T00:56:11;100395.78;;;1.20;65.75
39051;BME280;24805;55.852;37.644;2024-01-30T01:01:13;100398.16;;;1.23;65.56
39051;BME280;24805;55.852;37.644;2024-01-30T01:06:17;100385.00;;;1.24;65.84
39051;BME280;24805;55.852;37.644;2024-01-30T01:11:19;100390.69;;;1.31;65.70
39051;BME280;24805;55.852;37.644;2024-01-30T01:16:21;100384.44;;;1.33;65.70
39051;BME280;24805;55.852;37.644;2024-01-30T01:21:23;100388.16;;;1.29;65.73
39051;BME280;24805;55.852;37.644;2024-01-30T01:26:26;100379.44;;;1.43;65.71
39051;BME280;24805;55.852;37.644;2024-01-30T01:31:28;100378.19;;;1.36;65.88
39051;BME280;24805;55.852;37.644;2024-01-30T01:36:32;100364.50;;;1.45;65.72
39051;BME280;24805;55.852;37.644;2024-01-30T01:41:34;100358.94;;;1.37;66.10
39051;BME280;24805;55.852;37.644;2024-01-30T01:46:36;100361.13;;;1.43;65.84
39051;BME280;24805;55.852;37.644;2024-01-30T01:51:39;100360.09;;;1.46;65.54
39051;BME280;24805;55.852;37.644;2024-01-30T01:56:43;100369.88;;;1.56;65.38
39051;BME280;24805;55.852;37.644;2024-01-30T02:01:46;100344.88;;;1.52;65.54
39051;BME280;24805;55.852;37.644;2024-01-30T02:06:51;100369.38;;;1.64;65.42
39051;BME280;24805;55.852;37.644;2024-01-30T02:11:54;100361.97;;;1.70;65.47
39051;BME280;24805;55.852;37.644;2024-01-30T02:16:57;100361.75;;;1.73;65.30
39051;BME280;24805;55.852;37.644;2024-01-30T02:21:59;100368.38;;;1.79;65.36
39051;BME280;24805;55.852;37.644;2024-01-30T02:27:02;100362.09;;;1.82;65.27
39051;BME280;24805;55.852;37.644;2024-01-30T02:32:04;100359.16;;;1.86;65.06
39051;BME280;24805;55.852;37.644;2024-01-30T02:37:07;100356.56;;;1.86;65.38
39051;BME280;24805;55.852;37.644;2024-01-30T02:42:09;100365.25;;;1.87;65.00
39051;BME280;24805;55.852;37.644;2024-01-30T02:47:12;100349.44;;;1.88;65.19
39051;BME280;24805;55.852;37.644;2024-01-30T02:52:14;100356.69;;;1.97;64.74
39051;BME280;24805;55.852;37.644;2024-01-30T02:57:16;100362.88;;;1.96;64.96
39051;BME280;24805;55.852;37.644;2024-01-30T03:02:18;100372.91;;;2.02;64.94
39051;BME280;24805;55.852;37.644;2024-01-30T03:07:21;100379.13;;;2.14;64.65
39051;BME280;24805;55.852;37.644;2024-01-30T03:12:23;100386.88;;;2.16;65.14
39051;BME280;24805;55.852;37.644;2024-01-30T03:17:25;100379.84;;;2.16;64.59
39051;BME280;24805;55.852;37.644;2024-01-30T03:22:27;100386.03;;;2.15;64.76
39051;BME280;24805;55.852;37.644;2024-01-30T03:27:30;100389.78;;;2.24;64.58
39051;BME280;24805;55.852;37.644;2024-01-30T03:32:32;100389.78;;;2.24;64.73
39051;BME280;24805;55.852;37.644;2024-01-30T03:37:34;100391.16;;;2.29;64.37
39051;BME280;24805;55.852;37.644;2024-01-30T03:42:36;100383.31;;;2.29;64.67
39051;BME280;24805;55.852;37.644;2024-01-30T03:47:39;100388.44;;;2.31;64.49
39051;BME280;24805;55.852;37.644;2024-01-30T03:52:41;100391.06;;;2.31;64.63
39051;BME280;24805;55.852;37.644;2024-01-30T03:57:43;100400.19;;;2.38;64.18
39051;BME280;24805;55.852;37.644;2024-01-30T04:02:45;100401.97;;;2.37;64.39
39051;BME280;24805;55.852;37.644;2024-01-30T04:07:48;100400.69;;;2.43;64.61
39051;BME280;24805;55.852;37.644;2024-01-30T04:12:51;100388.97;;;2.49;64.54
39051;BME280;24805;55.852;37.644;2024-01-30T04:17:59;100401.34;;;2.59;64.22
39051;BME280;24805;55.852;37.644;2024-01-30T04:23:01;100376.41;;;2.54;64.40
39051;BME280;24805;55.852;37.644;2024-01-30T04:28:04;100379.75;;;2.56;64.34
39051;BME280;24805;55.852;37.644;2024-01-30T04:33:06;100375.16;;;2.59;64.14
39051;BME280;24805;55.852;37.644;2024-01-30T04:38:09;100364.03;;;2.56;63.81
39051;BME280;24805;55.852;37.644;2024-01-30T04:43:11;100397.88;;;2.71;63.58
39051;BME280;24805;55.852;37.644;2024-01-30T04:48:13;100393.38;;;2.73;64.06
39051;BME280;24805;55.852;37.644;2024-01-30T04:53:16;100400.38;;;2.73;64.29
39051;BME280;24805;55.852;37.644;2024-01-30T04:58:18;100375.44;;;2.67;64.15
39051;BME280;24805;55.852;37.644;2024-01-30T05:03:20;100374.59;;;2.67;64.03
39051;BME280;24805;55.852;37.644;2024-01-30T05:08:24;100386.44;;;2.72;63.74
39051;BME280;24805;55.852;37.644;2024-01-30T05:13:27;100383.28;;;2.80;63.68
39051;BME280;24805;55.852;37.644;2024-01-30T05:18:29;100387.56;;;2.81;63.70
39051;BME280;24805;55.852;37.644;2024-01-30T05:23:32;100405.91;;;2.81;64.06
39051;BME280;24805;55.852;37.644;2024-01-30T05:28:34;100410.63;;;2.89;63.52
39051;BME280;24805;55.852;37.644;2024-01-30T05:33:36;100403.91;;;2.85;63.91
39051;BME280;24805;55.852;37.644;2024-01-30T05:38:39;100397.22;;;2.93;63.62
39051;BME280;24805;55.852;37.644;2024-01-30T05:43:42;100417.25;;;2.94;63.64
39051;BME280;24805;55.852;37.644;2024-01-30T05:48:44;100421.44;;;2.97;63.51
39051;BME280;24805;55.852;37.644;2024-01-30T05:53:46;100404.66;;;2.87;64.12
39051;BME280;24805;55.852;37.644;2024-01-30T05:58:49;100412.16;;;3.04;63.60
39051;BME280;24805;55.852;37.644;2024-01-30T06:03:52;100420.56;;;3.09;63.57
39051;BME280;24805;55.852;37.644;2024-01-30T06:08:55;100416.19;;;2.97;63.52
39051;BME280;24805;55.852;37.644;2024-01-30T06:13:58;100424.75;;;3.11;63.83
39051;BME280;24805;55.852;37.644;2024-01-30T06:19:00;100427.38;;;3.11;63.45
39051;BME280;24805;55.852;37.644;2024-01-30T06:24:03;100434.47;;;3.22;63.32
39051;BME280;24805;55.852;37.644;2024-01-30T06:29:05;100440.84;;;3.31;63.10
39051;BME280;24805;55.852;37.644;2024-01-30T06:34:11;100445.69;;;3.37;63.11
39051;BME280;24805;55.852;37.644;2024-01-30T06:39:14;100448.69;;;3.43;62.96
39051;BME280;24805;55.852;37.644;2024-01-30T06:44:16;100451.19;;;3.45;62.99
39051;BME280;24805;55.852;37.644;2024-01-30T06:49:18;100462.84;;;3.54;63.10
39051;BME280;24805;55.852;37.644;2024-01-30T06:54:21;100459.53;;;3.63;62.69
39051;BME280;24805;55.852;37.644;2024-01-30T06:59:23;100423.38;;;3.55;62.44
39051;BME280;24805;55.852;37.644;2024-01-30T07:04:25;100454.47;;;3.72;62.14
39051;BME280;24805;55.852;37.644;2024-01-30T07:09:28;100457.72;;;3.76;62.30
39051;BME280;24805;55.852;37.644;2024-01-30T07:14:31;100447.56;;;3.71;62.13
39051;BME280;24805;55.852;37.644;2024-01-30T07:19:33;100478.53;;;3.90;62.19
39051;BME280;24805;55.852;37.644;2024-01-30T07:24:42;100471.66;;;4.00;62.09
39051;BME280;24805;55.852;37.644;2024-01-30T07:29:47;100479.69;;;3.99;61.64
39051;BME280;24805;55.852;37.644;2024-01-30T07:34:49;100485.41;;;4.04;61.85
39051;BME280;24805;55.852;37.644;2024-01-30T07:40:08;100486.34;;;4.03;61.72
39051;BME280;24805;55.852;37.644;2024-01-30T07:45:10;100475.63;;;4.06;62.06
39051;BME280;24805;55.852;37.644;2024-01-30T07:50:12;100477.38;;;4.18;61.77
39051;BME280;24805;55.852;37.644;2024-01-30T07:55:55;100456.06;;;4.45;61.79
39051;BME280;24805;55.852;37.644;2024-01-30T08:01:27;100478.16;;;4.42;61.34
39051;BME280;24805;55.852;37.644;2024-01-30T08:06:29;100471.81;;;4.45;60.64
39051;BME280;24805;55.852;37.644;2024-01-30T08:11:32;100477.41;;;4.40;60.82
39051;BME280;24805;55.852;37.644;2024-01-30T08:16:34;100488.91;;;4.39;60.93
39051;BME280;24805;55.852;37.644;2024-01-30T08:21:36;100490.44;;;4.42;60.86
39051;BME280;24805;55.852;37.644;2024-01-30T08:26:41;100466.66;;;4.32;60.68
39051;BME280;24805;55.852;37.644;2024-01-30T08:31:43;100463.44;;;4.40;60.59
39051;BME280;24805;55.852;37.644;2024-01-30T08:36:46;100481.88;;;4.51;60.49
39051;BME280;24805;55.852;37.644;2024-01-30T08:41:49;100485.84;;;4.57;60.74
39051;BME280;24805;55.852;37.644;2024-01-30T08:46:51;100474.41;;;4.69;60.23
39051;BME280;24805;55.852;37.644;2024-01-30T08:51:54;100479.81;;;4.78;60.21
39051;BME280;24805;55.852;37.644;2024-01-30T08:56:56;100489.00;;;4.84;59.80
39051;BME280;24805;55.852;37.644;2024-01-30T09:02:00;100467.47;;;4.68;59.75
39051;BME280;24805;55.852;37.644;2024-01-30T09:07:13;100485.63;;;4.82;59.76
39051;BME280;24805;55.852;37.644;2024-01-30T09:12:16;100491.50;;;4.85;59.99
39051;BME280;24805;55.852;37.644;2024-01-30T09:17:18;100486.63;;;4.92;59.62
39051;BME280;24805;55.852;37.644;2024-01-30T09:22:21;100483.66;;;4.97;59.59
39051;BME280;24805;55.852;37.644;2024-01-30T09:27:23;100486.38;;;5.06;59.14
39051;BME280;24805;55.852;37.644;2024-01-30T09:32:25;100489.16;;;5.16;58.71
39051;BME280;24805;55.852;37.644;2024-01-30T09:37:28;100472.53;;;5.15;58.89
39051;BME280;24805;55.852;37.644;2024-01-30T09:42:35;100466.88;;;5.20;59.08
39051;BME280;24805;55.852;37.644;2024-01-30T09:47:41;100475.53;;;5.11;58.75
39051;BME280;24805;55.852;37.644;2024-01-30T09:52:47;100466.19;;;5.07;59.03
39051;BME280;24805;55.852;37.644;2024-01-30T09:57:49;100463.56;;;5.07;58.59
39051;BME280;24805;55.852;37.644;2024-01-30T10:02:52;100468.22;;;5.14;58.72
39051;BME280;24805;55.852;37.644;2024-01-30T10:07:56;100468.94;;;5.28;58.79
39051;BME280;24805;55.852;37.644;2024-01-30T10:12:59;100461.03;;;5.28;58.33
39051;BME280;24805;55.852;37.644;2024-01-30T10:18:06;100481.09;;;5.40;58.30
39051;BME280;24805;55.852;37.644;2024-01-30T10:23:09;100488.06;;;5.52;57.95
39051;BME280;24805;55.852;37.644;2024-01-30T10:28:11;100472.81;;;5.67;58.10
39051;BME280;24805;55.852;37.644;2024-01-30T10:33:14;100460.50;;;5.67;57.09
39051;BME280;24805;55.852;37.644;2024-01-30T10:38:19;100476.97;;;5.80;57.41
39051;BME280;24805;55.852;37.644;2024-01-30T10:43:22;100468.00;;;5.83;57.48
39051;BME280;24805;55.852;37.644;2024-01-30T10:48:29;100471.88;;;6.11;57.16
39051;BME280;24805;55.852;37.644;2024-01-30T10:53:33;100466.91;;;6.29;56.03
39051;BME280;24805;55.852;37.644;2024-01-30T10:58:36;100472.50;;;6.35;55.61
39051;BME280;24805;55.852;37.644;2024-01-30T11:03:38;100466.53;;;6.33;55.86
39051;BME280;24805;55.852;37.644;2024-01-30T11:08:41;100481.75;;;6.30;55.49
39051;BME280;24805;55.852;37.644;2024-01-30T11:13:43;100477.94;;;6.22;56.02
39051;BME280;24805;55.852;37.644;2024-01-30T11:18:50;100476.91;;;6.14;55.97
39051;BME280;24805;55.852;37.644;2024-01-30T11:23:54;100475.53;;;5.87;56.04
39051;BME280;24805;55.852;37.644;2024-01-30T11:28:57;100490.66;;;5.74;56.38
39051;BME280;24805;55.852;37.644;2024-01-30T11:34:01;100493.88;;;5.67;56.24
39051;BME280;24805;55.852;37.644;2024-01-30T11:39:03;100503.13;;;5.50;57.01
39051;BME280;24805;55.852;37.644;2024-01-30T11:44:07;100505.06;;;5.37;57.41
39051;BME280;24805;55.852;37.644;2024-01-30T11:49:09;100491.41;;;5.09;57.33
39051;BME280;24805;55.852;37.644;2024-01-30T11:54:12;100518.22;;;5.14;57.80
39051;BME280;24805;55.852;37.644;2024-01-30T11:59:14;100513.56;;;5.18;58.30
39051;BME280;24805;55.852;37.644;2024-01-30T12:04:16;100517.03;;;5.18;57.96
39051;BME280;24805;55.852;37.644;2024-01-30T12:09:19;100516.88;;;5.20;57.77
39051;BME280;24805;55.852;37.644;2024-01-30T12:14:22;100521.78;;;5.13;58.03
39051;BME280;24805;55.852;37.644;2024-01-30T12:19:26;100505.53;;;4.97;58.33
39051;BME280;24805;55.852;37.644;2024-01-30T12:24:29;100520.97;;;5.13;58.13
39051;BME280;24805;55.852;37.644;2024-01-30T12:29:34;100527.53;;;5.18;58.35
39051;BME280;24805;55.852;37.644;2024-01-30T12:34:41;100493.09;;;5.10;58.34
39051;BME280;24805;55.852;37.644;2024-01-30T12:39:58;100517.13;;;5.28;58.25
39051;BME280;24805;55.852;37.644;2024-01-30T12:45:02;100525.41;;;5.35;58.33
39051;BME280;24805;55.852;37.644;2024-01-30T12:50:06;100533.41;;;5.33;58.32
39051;BME280;24805;55.852;37.644;2024-01-30T12:55:08;100505.53;;;5.19;58.12
39051;BME280;24805;55.852;37.644;2024-01-30T13:00:11;100527.78;;;5.27;58.22
39051;BME280;24805;55.852;37.644;2024-01-30T13:05:14;100531.69;;;5.21;58.08
39051;BME280;24805;55.852;37.644;2024-01-30T13:10:16;100537.22;;;5.18;58.25
39051;BME280;24805;55.852;37.644;2024-01-30T13:15:19;100538.31;;;5.15;58.37
39051;BME280;24805;55.852;37.644;2024-01-30T13:20:21;100534.81;;;5.04;58.35
39051;BME280;24805;55.852;37.644;2024-01-30T13:25:24;100545.81;;;4.98;58.69
39051;BME280;24805;55.852;37.644;2024-01-30T13:30:26;100538.50;;;4.90;59.00
39051;BME280;24805;55.852;37.644;2024-01-30T13:35:28;100503.31;;;4.69;59.08
39051;BME280;24805;55.852;37.644;2024-01-30T13:40:31;100540.38;;;4.77;59.27
39051;BME280;24805;55.852;37.644;2024-01-30T13:45:33;100539.28;;;4.68;58.77
39051;BME280;24805;55.852;37.644;2024-01-30T13:50:35;100543.69;;;4.68;59.50
39051;BME280;24805;55.852;37.644;2024-01-30T13:55:38;100555.38;;;4.64;59.57
39051;BME280;24805;55.852;37.644;2024-01-30T14:00:41;100558.13;;;4.62;59.46
39051;BME280;24805;55.852;37.644;2024-01-30T14:05:44;100563.84;;;4.56;59.53
39051;BME280;24805;55.852;37.644;2024-01-30T14:10:46;100560.72;;;4.51;59.48
39051;BME280;24805;55.852;37.644;2024-01-30T14:15:48;100570.72;;;4.46;59.93
39051;BME280;24805;55.852;37.644;2024-01-30T14:20:51;100575.38;;;4.42;59.73
39051;BME280;24805;55.852;37.644;2024-01-30T14:25:54;100577.63;;;4.36;59.90
39051;BME280;24805;55.852;37.644;2024-01-30T14:30:56;100587.50;;;4.32;60.10
39051;BME280;24805;55.852;37.644;2024-01-30T14:35:58;100558.91;;;4.17;59.92
39051;BME280;24805;55.852;37.644;2024-01-30T14:41:01;100590.25;;;4.31;60.26
39051;BME280;24805;55.852;37.644;2024-01-30T14:46:03;100584.25;;;4.29;59.95
39051;BME280;24805;55.852;37.644;2024-01-30T14:51:08;100588.78;;;4.27;60.66
39051;BME280;24805;55.852;37.644;2024-01-30T14:56:11;100592.03;;;4.30;60.34
39051;BME280;24805;55.852;37.644;2024-01-30T15:01:16;100592.66;;;4.34;60.46
39051;BME280;24805;55.852;37.644;2024-01-30T15:06:18;100597.06;;;4.33;60.49
39051;BME280;24805;55.852;37.644;2024-01-30T15:11:21;100594.22;;;4.36;60.89
39051;BME280;24805;55.852;37.644;2024-01-30T15:16:23;100607.47;;;4.35;60.64
39051;BME280;24805;55.852;37.644;2024-01-30T15:21:26;100606.63;;;4.34;60.30
39051;BME280;24805;55.852;37.644;2024-01-30T15:26:30;100615.34;;;4.35;60.30
39051;BME280;24805;55.852;37.644;2024-01-30T15:31:32;100627.03;;;4.31;60.29
39051;BME280;24805;55.852;37.644;2024-01-30T15:36:35;100611.59;;;4.26;60.39
39051;BME280;24805;55.852;37.644;2024-01-30T15:41:37;100625.16;;;4.20;60.74
39051;BME280;24805;55.852;37.644;2024-01-30T15:46:39;100634.44;;;4.13;60.67
39051;BME280;24805;55.852;37.644;2024-01-30T15:51:42;100633.81;;;4.09;60.86
39051;BME280;24805;55.852;37.644;2024-01-30T15:56:44;100612.84;;;3.97;60.88
39051;BME280;24805;55.852;37.644;2024-01-30T16:01:46;100651.56;;;4.06;60.90
39051;BME280;24805;55.852;37.644;2024-01-30T16:06:51;100644.75;;;4.03;61.12
39051;BME280;24805;55.852;37.644;2024-01-30T16:11:53;100638.88;;;4.00;61.27
39051;BME280;24805;55.852;37.644;2024-01-30T16:16:55;100634.81;;;3.96;61.44
39051;BME280;24805;55.852;37.644;2024-01-30T16:21:58;100641.84;;;3.95;61.43
39051;BME280;24805;55.852;37.644;2024-01-30T16:27:00;100636.91;;;3.91;61.02
39051;BME280;24805;55.852;37.644;2024-01-30T16:32:03;100640.47;;;3.90;61.76
39051;BME280;24805;55.852;37.644;2024-01-30T16:37:05;100633.97;;;3.83;61.17
39051;BME280;24805;55.852;37.644;2024-01-30T16:42:08;100639.22;;;3.83;61.57
39051;BME280;24805;55.852;37.644;2024-01-30T16:47:10;100641.84;;;3.83;61.73
39051;BME280;24805;55.852;37.644;2024-01-30T16:52:12;100638.47;;;3.80;61.85
39051;BME280;24805;55.852;37.644;2024-01-30T16:57:15;100640.16;;;3.81;61.46
39051;BME280;24805;55.852;37.644;2024-01-30T17:02:17;100652.34;;;3.83;61.80
39051;BME280;24805;55.852;37.644;2024-01-30T17:07:19;100648.78;;;3.84;61.69
39051;BME280;24805;55.852;37.644;2024-01-30T17:12:22;100642.69;;;3.83;61.66
39051;BME280;24805;55.852;37.644;2024-01-30T17:17:24;100632.28;;;3.81;61.22
39051;BME280;24805;55.852;37.644;2024-01-30T17:22:26;100650.75;;;3.80;62.01
39051;BME280;24805;55.852;37.644;2024-01-30T17:27:31;100650.91;;;3.78;61.66
39051;BME280;24805;55.852;37.644;2024-01-30T17:32:33;100659.81;;;3.76;61.96
39051;BME280;24805;55.852;37.644;2024-01-30T17:37:35;100662.34;;;3.77;61.98
39051;BME280;24805;55.852;37.644;2024-01-30T17:42:40;100666.41;;;3.81;62.12
39051;BME280;24805;55.852;37.644;2024-01-30T17:47:43;100658.31;;;3.85;61.91
39051;BME280;24805;55.852;37.644;2024-01-30T17:52:45;100651.94;;;3.89;62.03
39051;BME280;24805;55.852;37.644;2024-01-30T17:57:47;100641.22;;;3.92;61.91
39051;BME280;24805;55.852;37.644;2024-01-30T18:02:50;100651.59;;;3.93;61.93
39051;BME280;24805;55.852;37.644;2024-01-30T18:07:55;100650.75;;;3.93;61.47
39051;BME280;24805;55.852;37.644;2024-01-30T18:12:57;100638.06;;;3.87;61.87
39051;BME280;24805;55.852;37.644;2024-01-30T18:18:01;100628.72;;;3.83;61.74
39051;BME280;24805;55.852;37.644;2024-01-30T18:23:04;100642.78;;;3.81;62.06
39051;BME280;24805;55.852;37.644;2024-01-30T18:28:06;100642.41;;;3.75;62.10
39051;BME280;24805;55.852;37.644;2024-01-30T18:33:08;100651.53;;;3.69;61.93
39051;BME280;24805;55.852;37.644;2024-01-30T18:38:11;100648.91;;;3.69;62.25
39051;BME280;24805;55.852;37.644;2024-01-30T18:43:13;100635.78;;;3.69;62.31
39051;BME280;24805;55.852;37.644;2024-01-30T18:48:15;100636.41;;;3.73;62.34
39051;BME280;24805;55.852;37.644;2024-01-30T18:53:17;100629.16;;;3.76;62.26
39051;BME280;24805;55.852;37.644;2024-01-30T18:58:20;100624.50;;;3.80;62.01
39051;BME280;24805;55.852;37.644;2024-01-30T19:03:22;100625.78;;;3.87;62.19
39051;BME280;24805;55.852;37.644;2024-01-30T19:08:25;100639.53;;;3.91;62.08
39051;BME280;24805;55.852;37.644;2024-01-30T19:13:29;100637.13;;;3.88;62.14
39051;BME280;24805;55.852;37.644;2024-01-30T19:18:32;100642.69;;;3.83;62.10
39051;BME280;24805;55.852;37.644;2024-01-30T19:23:34;100630.84;;;3.77;62.06
39051;BME280;24805;55.852;37.644;2024-01-30T19:28:36;100637.16;;;3.75;62.13
39051;BME280;24805;55.852;37.644;2024-01-30T19:33:39;100630.00;;;3.64;62.54
39051;BME280;24805;55.852;37.644;2024-01-30T19:38:41;100635.78;;;3.57;62.41
39051;BME280;24805;55.852;37.644;2024-01-30T19:43:44;100629.91;;;3.53;62.68
39051;BME280;24805;55.852;37.644;2024-01-30T19:48:46;100631.28;;;3.46;62.83
39051;BME280;24805;55.852;37.644;2024-01-30T19:53:48;100635.69;;;3.45;63.02
39051;BME280;24805;55.852;37.644;2024-01-30T19:58:51;100641.97;;;3.43;62.53
39051;BME280;24805;55.852;37.644;2024-01-30T20:03:53;100634.44;;;3.38;62.74
39051;BME280;24805;55.852;37.644;2024-01-30T20:08:55;100634.31;;;3.40;62.73
39051;BME280;24805;55.852;37.644;2024-01-30T20:13:58;100641.88;;;3.44;62.76
39051;BME280;24805;55.852;37.644;2024-01-30T20:19:00;100636.22;;;3.51;63.04
39051;BME280;24805;55.852;37.644;2024-01-30T20:24:03;100648.47;;;3.63;62.78
39051;BME280;24805;55.852;37.644;2024-01-30T20:29:06;100646.28;;;3.69;62.72
39051;BME280;24805;55.852;37.644;2024-01-30T20:34:10;100626.97;;;3.70;62.62
39051;BME280;24805;55.852;37.644;2024-01-30T20:39:13;100643.03;;;3.78;62.37
39051;BME280;24805;55.852;37.644;2024-01-30T20:44:17;100629.91;;;3.78;62.06
39051;BME280;24805;55.852;37.644;2024-01-30T20:49:21;100625.81;;;3.74;62.16
39051;BME280;24805;55.852;37.644;2024-01-30T20:54:24;100627.16;;;3.67;62.29
39051;BME280;24805;55.852;37.644;2024-01-30T20:59:45;100637.25;;;3.61;62.13
39051;BME280;24805;55.852;37.644;2024-01-30T21:04:47;100635.16;;;3.53;61.92
39051;BME280;24805;55.852;37.644;2024-01-30T21:09:49;100638.09;;;3.49;62.79
39051;BME280;24805;55.852;37.644;2024-01-30T21:14:53;100634.44;;;3.51;62.46
39051;BME280;24805;55.852;37.644;2024-01-30T21:19:55;100634.13;;;3.56;62.77
39051;BME280;24805;55.852;37.644;2024-01-30T21:24:58;100630.44;;;3.58;62.39
39051;BME280;24805;55.852;37.644;2024-01-30T21:30:00;100626.53;;;3.64;62.35
39051;BME280;24805;55.852;37.644;2024-01-30T21:35:05;100631.78;;;3.64;62.49
39051;BME280;24805;55.852;37.644;2024-01-30T21:40:08;100619.00;;;3.59;62.45
39051;BME280;24805;55.852;37.644;2024-01-30T21:45:12;100620.47;;;3.51;62.35
39051;BME280;24805;55.852;37.644;2024-01-30T21:50:17;100606.81;;;3.45;63.09
39051;BME280;24805;55.852;37.644;2024-01-30T21:55:21;100610.00;;;3.38;62.40
39051;BME280;24805;55.852;37.644;2024-01-30T22:00:23;100604.09;;;3.34;62.60
39051;BME280;24805;55.852;37.644;2024-01-30T22:05:25;100608.31;;;3.37;62.85
39051;BME280;24805;55.852;37.644;2024-01-30T22:10:27;100593.63;;;3.34;62.68
39051;BME280;24805;55.852;37.644;2024-01-30T22:15:30;100590.56;;;3.28;62.52
39051;BME280;24805;55.852;37.644;2024-01-30T22:20:35;100587.09;;;3.27;62.72
39051;BME280;24805;55.852;37.644;2024-01-30T22:25:37;100587.53;;;3.34;62.54
39051;BME280;24805;55.852;37.644;2024-01-30T22:30:39;100556.47;;;3.28;62.44
39051;BME280;24805;55.852;37.644;2024-01-30T22:35:42;100582.69;;;3.40;62.27
39051;BME280;24805;55.852;37.644;2024-01-30T22:40:44;100566.44;;;3.23;62.12
39051;BME280;24805;55.852;37.644;2024-01-30T22:45:46;100577.16;;;3.20;62.13
39051;BME280;24805;55.852;37.644;2024-01-30T22:50:48;100568.84;;;3.13;62.64
39051;BME280;24805;55.852;37.644;2024-01-30T22:55:51;100576.41;;;3.18;62.68
39051;BME280;24805;55.852;37.644;2024-01-30T23:00:53;100582.06;;;3.24;62.55
39051;BME280;24805;55.852;37.644;2024-01-30T23:05:55;100571.38;;;3.27;62.29
39051;BME280;24805;55.852;37.644;2024-01-30T23:10:57;100575.13;;;3.23;61.82
39051;BME280;24805;55.852;37.644;2024-01-30T23:15:59;100576.19;;;3.21;61.74
39051;BME280;24805;55.852;37.644;2024-01-30T23:21:02;100568.56;;;3.18;62.21
39051;BME280;24805;55.852;37.644;2024-01-30T23:26:04;100575.88;;;3.25;62.13
39051;BME280;24805;55.852;37.644;2024-01-30T23:31:07;100577.16;;;3.32;61.64
39051;BME280;24805;55.852;37.644;2024-01-30T23:36:09;100563.81;;;3.35;61.65
39051;BME280;24805;55.852;37.644;2024-01-30T23:41:11;100566.75;;;3.31;61.74
39051;BME280;24805;55.852;37.644;2024-01-30T23:46:13;100554.59;;;3.17;62.05
39051;BME280;24805;55.852;37.644;2024-01-30T23:51:16;100525.44;;;2.96;62.13
39051;BME280;24805;55.852;37.644;2024-01-30T23:56:19;100552.28;;;3.13;62.47
